createdAt,value
2016-11-29T00:00:14.706Z,924.81
2016-11-29T00:00:42.916Z,924.85
2016-11-29T00:01:11.068Z,924.85
2016-11-29T00:01:39.245Z,924.82
2016-11-29T00:02:07.507Z,924.82
2016-11-29T00:02:35.709Z,924.9
2016-11-29T00:03:03.896Z,924.86
2016-11-29T00:04:15.127Z,924.83
2016-11-29T00:04:43.206Z,924.89
2016-11-29T00:05:11.547Z,924.88
2016-11-29T00:05:39.677Z,924.92
2016-11-29T00:06:07.936Z,924.89
2016-11-29T00:06:36.248Z,924.9
2016-11-29T00:07:04.407Z,924.88
2016-11-29T00:07:32.513Z,924.93
2016-11-29T00:08:00.586Z,924.9
2016-11-29T00:08:28.780Z,924.91
2016-11-29T00:08:56.777Z,924.94
2016-11-29T00:10:08.100Z,924.91
2016-11-29T00:10:36.304Z,924.92
2016-11-29T00:11:04.653Z,924.91
2016-11-29T00:11:32.963Z,924.96
2016-11-29T00:12:01.219Z,924.89
2016-11-29T00:12:29.251Z,924.93
2016-11-29T00:12:57.166Z,924.95
2016-11-29T00:13:25.366Z,924.96
2016-11-29T00:13:53.444Z,924.95
2016-11-29T00:14:21.738Z,924.92
2016-11-29T00:14:50.012Z,924.96
2016-11-29T00:16:01.241Z,924.98
2016-11-29T00:16:29.255Z,925.01
2016-11-29T00:16:57.411Z,924.95
2016-11-29T00:17:25.540Z,924.95
2016-11-29T00:17:53.614Z,924.95
2016-11-29T00:18:21.741Z,924.95
2016-11-29T00:18:49.717Z,924.95
2016-11-29T00:19:17.825Z,924.93
2016-11-29T00:19:45.906Z,924.95
2016-11-29T00:20:14.107Z,924.93
2016-11-29T00:20:42.383Z,924.95
2016-11-29T00:21:53.521Z,924.93
2016-11-29T00:22:21.699Z,924.99
2016-11-29T00:22:49.742Z,925
2016-11-29T00:23:18.019Z,925
2016-11-29T00:23:46.088Z,925.01
2016-11-29T00:24:14.295Z,925.02
2016-11-29T00:24:42.550Z,925.04
2016-11-29T00:25:10.722Z,925.04
2016-11-29T00:25:38.986Z,925.02
2016-11-29T00:26:07.188Z,925.03
2016-11-29T00:26:35.462Z,925.04
2016-11-29T00:27:46.596Z,925.03
2016-11-29T00:28:14.593Z,925.08
2016-11-29T00:28:42.923Z,925.09
2016-11-29T00:29:10.923Z,925.08
2016-11-29T00:29:39.177Z,925.11
2016-11-29T00:30:07.483Z,925.12
2016-11-29T00:30:35.739Z,925.17
2016-11-29T00:31:03.918Z,925.14
2016-11-29T00:31:32.181Z,925.14
2016-11-29T00:32:00.282Z,925.14
2016-11-29T00:32:28.366Z,925.14
2016-11-29T00:33:39.510Z,925.14
2016-11-29T00:34:07.686Z,925.17
2016-11-29T00:34:36.012Z,925.13
2016-11-29T00:35:04.105Z,925.16
2016-11-29T00:35:32.366Z,925.15
2016-11-29T00:36:00.577Z,925.18
2016-11-29T00:36:28.827Z,925.17
2016-11-29T00:36:56.907Z,925.16
2016-11-29T00:37:25.169Z,925.16
2016-11-29T00:37:53.363Z,925.17
2016-11-29T00:38:21.639Z,925.19
2016-11-29T00:39:32.869Z,925.2
2016-11-29T00:40:01.044Z,925.17
2016-11-29T00:40:29.183Z,925.19
2016-11-29T00:40:57.461Z,925.2
2016-11-29T00:41:25.626Z,925.19
2016-11-29T00:41:53.925Z,925.2
2016-11-29T00:42:21.895Z,925.19
2016-11-29T00:42:50.070Z,925.24
2016-11-29T00:43:18.237Z,925.26
2016-11-29T00:43:46.437Z,925.25
2016-11-29T00:44:14.520Z,925.26
2016-11-29T00:45:25.655Z,925.27
2016-11-29T00:45:53.744Z,925.3
2016-11-29T00:46:21.982Z,925.33
2016-11-29T00:46:50.082Z,925.3
2016-11-29T00:47:18.249Z,925.3
2016-11-29T00:47:46.463Z,925.32
2016-11-29T00:48:14.616Z,925.31
2016-11-29T00:48:42.606Z,925.28
2016-11-29T00:49:10.673Z,925.29
2016-11-29T00:49:38.777Z,925.26
2016-11-29T00:50:06.865Z,925.28
2016-11-29T00:51:18.188Z,925.26
2016-11-29T00:51:46.366Z,925.25
2016-11-29T00:52:14.692Z,925.22
2016-11-29T00:52:42.876Z,925.26
2016-11-29T00:53:11.046Z,925.24
2016-11-29T00:53:39.350Z,925.21
2016-11-29T00:54:07.415Z,925.23
2016-11-29T00:54:35.597Z,925.24
2016-11-29T00:55:03.670Z,925.24
2016-11-29T00:55:31.777Z,925.25
2016-11-29T00:55:59.868Z,925.25
2016-11-29T00:57:11.189Z,925.25
2016-11-29T00:57:39.369Z,925.28
2016-11-29T00:58:07.412Z,925.24
2016-11-29T00:58:35.696Z,925.26
2016-11-29T00:59:03.766Z,925.27
2016-11-29T00:59:32.067Z,925.29
2016-11-29T01:00:00.220Z,925.28
2016-11-29T01:00:28.307Z,925.29
2016-11-29T01:00:56.564Z,925.33
2016-11-29T01:01:24.858Z,925.3
2016-11-29T01:01:52.852Z,925.33
2016-11-29T01:03:03.889Z,925.3
2016-11-29T01:03:31.969Z,925.31
2016-11-29T01:04:00.204Z,925.36
2016-11-29T01:04:28.294Z,925.35
2016-11-29T01:04:56.376Z,925.35
2016-11-29T01:05:24.679Z,925.35
2016-11-29T01:05:52.832Z,925.39
2016-11-29T01:06:21.011Z,925.37
2016-11-29T01:06:49.086Z,925.35
2016-11-29T01:07:17.191Z,925.36
2016-11-29T01:07:45.467Z,925.4
2016-11-29T01:08:56.793Z,925.37
2016-11-29T01:09:25.059Z,925.38
2016-11-29T01:09:53.292Z,925.33
2016-11-29T01:10:21.477Z,925.37
2016-11-29T01:10:49.561Z,925.36
2016-11-29T01:11:17.673Z,925.39
2016-11-29T01:11:45.828Z,925.38
2016-11-29T01:12:14.008Z,925.4
2016-11-29T01:12:42.081Z,925.38
2016-11-29T01:13:10.375Z,925.4
2016-11-29T01:13:38.464Z,925.42
2016-11-29T01:14:49.600Z,925.39
2016-11-29T01:15:17.894Z,925.43
2016-11-29T01:15:46.150Z,925.42
2016-11-29T01:16:14.276Z,925.43
2016-11-29T01:16:42.349Z,925.43
2016-11-29T01:17:10.658Z,925.44
2016-11-29T01:17:38.825Z,925.46
2016-11-29T01:18:07.029Z,925.48
2016-11-29T01:18:35.094Z,925.45
2016-11-29T01:19:03.393Z,925.45
2016-11-29T01:19:31.666Z,925.5
2016-11-29T01:20:42.888Z,925.48
2016-11-29T01:21:10.995Z,925.48
2016-11-29T01:21:39.245Z,925.46
2016-11-29T01:22:07.557Z,925.47
2016-11-29T01:22:35.722Z,925.48
2016-11-29T01:23:03.837Z,925.5
2016-11-29T01:23:32.001Z,925.48
2016-11-29T01:24:00.011Z,925.53
2016-11-29T01:24:28.081Z,925.48
2016-11-29T01:24:56.282Z,925.47
2016-11-29T01:25:24.459Z,925.49
2016-11-29T01:26:35.775Z,925.48
2016-11-29T01:27:03.794Z,925.51
2016-11-29T01:27:31.950Z,925.49
2016-11-29T01:28:00.166Z,925.51
2016-11-29T01:28:28.236Z,925.51
2016-11-29T01:28:56.539Z,925.55
2016-11-29T01:29:24.699Z,925.53
2016-11-29T01:29:52.808Z,925.54
2016-11-29T01:30:20.976Z,925.52
2016-11-29T01:30:49.163Z,925.51
2016-11-29T01:31:17.271Z,925.54
2016-11-29T01:32:28.408Z,925.55
2016-11-29T01:32:56.491Z,925.54
2016-11-29T01:33:24.816Z,925.56
2016-11-29T01:33:52.812Z,925.52
2016-11-29T01:34:20.783Z,925.54
2016-11-29T01:34:48.992Z,925.58
2016-11-29T01:35:17.144Z,925.53
2016-11-29T01:35:45.128Z,925.54
2016-11-29T01:36:13.293Z,925.56
2016-11-29T01:36:41.497Z,925.54
2016-11-29T01:37:09.678Z,925.52
2016-11-29T01:38:20.907Z,925.55
2016-11-29T01:38:48.993Z,925.55
2016-11-29T01:39:17.231Z,925.54
2016-11-29T01:39:45.322Z,925.54
2016-11-29T01:40:13.390Z,925.51
2016-11-29T01:40:41.600Z,925.53
2016-11-29T01:41:09.844Z,925.49
2016-11-29T01:41:37.919Z,925.5
2016-11-29T01:42:05.990Z,925.5
2016-11-29T01:42:34.129Z,925.47
2016-11-29T01:43:02.121Z,925.46
2016-11-29T01:44:13.261Z,925.44
2016-11-29T01:44:41.529Z,925.45
2016-11-29T01:45:09.603Z,925.44
2016-11-29T01:45:37.783Z,925.44
2016-11-29T01:46:05.944Z,925.42
2016-11-29T01:46:34.156Z,925.4
2016-11-29T01:47:02.306Z,925.43
2016-11-29T01:47:30.384Z,925.42
2016-11-29T01:47:58.551Z,925.42
2016-11-29T01:48:26.842Z,925.44
2016-11-29T01:48:54.927Z,925.45
2016-11-29T01:50:06.061Z,925.44
2016-11-29T01:50:34.137Z,925.45
2016-11-29T01:51:02.279Z,925.47
2016-11-29T01:51:30.559Z,925.46
2016-11-29T01:51:58.718Z,925.47
2016-11-29T01:52:27.019Z,925.45
2016-11-29T01:52:55.081Z,925.43
2016-11-29T01:53:23.170Z,925.43
2016-11-29T01:53:51.335Z,925.39
2016-11-29T01:54:19.345Z,925.43
2016-11-29T01:54:47.535Z,925.43
2016-11-29T01:55:58.576Z,925.42
2016-11-29T01:56:26.762Z,925.39
2016-11-29T01:56:54.903Z,925.43
2016-11-29T01:57:23.180Z,925.4
2016-11-29T01:57:51.252Z,925.41
2016-11-29T01:58:19.561Z,925.4
2016-11-29T01:58:47.721Z,925.38
2016-11-29T01:59:15.901Z,925.44
2016-11-29T01:59:43.981Z,925.43
2016-11-29T02:00:12.182Z,925.43
2016-11-29T02:00:40.269Z,925.38
2016-11-29T02:01:51.598Z,925.4
2016-11-29T02:02:19.866Z,925.41
2016-11-29T02:02:48.097Z,925.41
2016-11-29T02:03:16.187Z,925.4
2016-11-29T02:03:44.446Z,925.39
2016-11-29T02:04:12.659Z,925.37
2016-11-29T02:04:40.817Z,925.36
2016-11-29T02:05:08.810Z,925.39
2016-11-29T02:05:36.975Z,925.38
2016-11-29T02:06:05.085Z,925.37
2016-11-29T02:06:33.173Z,925.37
2016-11-29T02:07:44.405Z,925.33
2016-11-29T02:08:12.678Z,925.32
2016-11-29T02:08:40.914Z,925.31
2016-11-29T02:09:09.101Z,925.29
2016-11-29T02:09:37.265Z,925.24
2016-11-29T02:10:05.377Z,925.27
2016-11-29T02:10:33.440Z,925.23
2016-11-29T02:11:01.527Z,925.21
2016-11-29T02:11:29.687Z,925.2
2016-11-29T02:11:57.792Z,925.19
2016-11-29T02:12:25.973Z,925.17
2016-11-29T02:13:37.112Z,925.16
2016-11-29T02:14:05.385Z,925.12
2016-11-29T02:14:33.434Z,925.08
2016-11-29T02:15:01.624Z,925.04
2016-11-29T02:15:29.788Z,925.07
2016-11-29T02:15:57.995Z,925.01
2016-11-29T02:16:26.150Z,924.98
2016-11-29T02:16:54.327Z,924.97
2016-11-29T02:17:22.587Z,924.97
2016-11-29T02:17:50.878Z,924.98
2016-11-29T02:18:18.967Z,924.95
2016-11-29T02:19:30.196Z,924.93
2016-11-29T02:19:58.466Z,924.94
2016-11-29T02:20:26.706Z,924.91
2016-11-29T02:20:54.889Z,924.92
2016-11-29T02:21:22.969Z,924.9
2016-11-29T02:21:51.081Z,924.92
2016-11-29T02:22:19.156Z,924.93
2016-11-29T02:22:47.336Z,924.93
2016-11-29T02:23:15.412Z,924.9
2016-11-29T02:23:43.610Z,924.88
2016-11-29T02:24:11.889Z,924.85
2016-11-29T02:25:23.117Z,924.87
2016-11-29T02:25:51.288Z,924.86
2016-11-29T02:26:19.342Z,924.84
2016-11-29T02:26:47.438Z,924.82
2016-11-29T02:27:15.696Z,924.81
2016-11-29T02:27:43.723Z,924.78
2016-11-29T02:28:11.784Z,924.82
2016-11-29T02:28:39.955Z,924.78
2016-11-29T02:29:08.026Z,924.78
2016-11-29T02:29:36.124Z,924.79
2016-11-29T02:30:04.308Z,924.81
2016-11-29T02:31:15.440Z,924.76
2016-11-29T02:31:43.334Z,924.72
2016-11-29T02:32:11.567Z,924.69
2016-11-29T02:32:39.757Z,924.73
2016-11-29T02:33:07.921Z,924.69
2016-11-29T02:33:36.030Z,924.7
2016-11-29T02:34:03.997Z,924.68
2016-11-29T02:34:32.265Z,924.65
2016-11-29T02:35:00.341Z,924.68
2016-11-29T02:35:28.537Z,924.64
2016-11-29T02:35:56.633Z,924.63
2016-11-29T02:37:07.583Z,924.63
2016-11-29T02:37:35.570Z,924.66
2016-11-29T02:38:03.806Z,924.61
2016-11-29T02:38:32.087Z,924.61
2016-11-29T02:39:00.344Z,924.61
2016-11-29T02:39:28.647Z,924.63
2016-11-29T02:39:56.894Z,924.6
2016-11-29T02:40:25.074Z,924.64
2016-11-29T02:40:53.242Z,924.61
2016-11-29T02:41:21.346Z,924.63
2016-11-29T02:41:49.530Z,924.64
2016-11-29T02:43:00.667Z,924.62
2016-11-29T02:43:28.840Z,924.6
2016-11-29T02:43:56.981Z,924.62
2016-11-29T02:44:25.079Z,924.6
2016-11-29T02:44:53.332Z,924.62
2016-11-29T02:45:21.635Z,924.62
2016-11-29T02:45:49.795Z,924.58
2016-11-29T02:46:17.783Z,924.62
2016-11-29T02:46:45.951Z,924.61
2016-11-29T02:47:14.158Z,924.63
2016-11-29T02:47:42.249Z,924.63
2016-11-29T02:48:53.478Z,924.62
2016-11-29T02:49:21.562Z,924.61
2016-11-29T02:49:49.887Z,924.62
2016-11-29T02:50:17.883Z,924.64
2016-11-29T02:50:46.049Z,924.66
2016-11-29T02:51:14.257Z,924.67
2016-11-29T02:51:42.413Z,924.66
2016-11-29T02:52:10.682Z,924.65
2016-11-29T02:52:38.760Z,924.64
2016-11-29T02:53:06.769Z,924.64
2016-11-29T02:53:34.856Z,924.66
2016-11-29T02:54:45.987Z,924.61
2016-11-29T02:55:13.973Z,924.63
2016-11-29T02:55:42.207Z,924.64
2016-11-29T02:56:10.494Z,924.65
2016-11-29T02:56:38.750Z,924.64
2016-11-29T02:57:07.056Z,924.64
2016-11-29T02:57:35.301Z,924.64
2016-11-29T02:58:03.475Z,924.62
2016-11-29T02:58:31.733Z,924.62
2016-11-29T02:58:59.840Z,924.63
2016-11-29T02:59:28.121Z,924.63
2016-11-29T03:00:39.167Z,924.62
2016-11-29T03:01:07.246Z,924.61
2016-11-29T03:01:35.390Z,924.61
2016-11-29T03:02:03.577Z,924.63
2016-11-29T03:02:31.833Z,924.6
2016-11-29T03:03:00.140Z,924.63
2016-11-29T03:03:28.102Z,924.61
2016-11-29T03:03:56.282Z,924.57
2016-11-29T03:04:24.542Z,924.59
2016-11-29T03:04:52.741Z,924.62
2016-11-29T03:05:21.020Z,924.6
2016-11-29T03:06:32.253Z,924.58
2016-11-29T03:07:00.265Z,924.54
2016-11-29T03:07:28.593Z,924.57
2016-11-29T03:07:56.683Z,924.56
2016-11-29T03:08:24.758Z,924.55
2016-11-29T03:08:53.000Z,924.54
2016-11-29T03:09:21.255Z,924.55
2016-11-29T03:09:49.342Z,924.54
2016-11-29T03:10:17.602Z,924.53
2016-11-29T03:10:45.804Z,924.53
2016-11-29T03:11:14.080Z,924.5
2016-11-29T03:12:25.398Z,924.49
2016-11-29T03:12:53.384Z,924.47
2016-11-29T03:13:21.715Z,924.46
2016-11-29T03:13:49.899Z,924.44
2016-11-29T03:14:18.066Z,924.47
2016-11-29T03:14:46.283Z,924.42
2016-11-29T03:15:14.532Z,924.4
2016-11-29T03:15:42.707Z,924.42
2016-11-29T03:16:10.974Z,924.39
2016-11-29T03:16:39.171Z,924.38
2016-11-29T03:17:07.257Z,924.35
2016-11-29T03:18:18.394Z,924.38
2016-11-29T03:18:46.570Z,924.32
2016-11-29T03:19:14.808Z,924.29
2016-11-29T03:19:42.734Z,924.25
2016-11-29T03:20:10.993Z,924.29
2016-11-29T03:20:39.202Z,924.27
2016-11-29T03:21:07.452Z,924.25
2016-11-29T03:21:35.720Z,924.22
2016-11-29T03:22:03.887Z,924.24
2016-11-29T03:22:32.180Z,924.22
2016-11-29T03:23:00.271Z,924.2
2016-11-29T03:24:11.503Z,924.21
2016-11-29T03:24:39.679Z,924.22
2016-11-29T03:25:07.909Z,924.19
2016-11-29T03:25:36.007Z,924.16
2016-11-29T03:26:04.263Z,924.17
2016-11-29T03:26:32.470Z,924.16
2016-11-29T03:27:00.719Z,924.2
2016-11-29T03:27:28.991Z,924.17
2016-11-29T03:27:57.253Z,924.15
2016-11-29T03:28:25.450Z,924.16
2016-11-29T03:28:53.630Z,924.16
2016-11-29T03:30:04.952Z,924.14
2016-11-29T03:30:33.038Z,924.12
2016-11-29T03:31:01.184Z,924.11
2016-11-29T03:31:29.464Z,924.09
2016-11-29T03:31:57.628Z,924.09
2016-11-29T03:32:25.842Z,924.07
2016-11-29T03:32:53.899Z,924.1
2016-11-29T03:33:22.074Z,924.06
2016-11-29T03:33:50.237Z,924.01
2016-11-29T03:34:18.531Z,924.07
2016-11-29T03:34:46.714Z,924.04
2016-11-29T03:35:57.943Z,924.03
2016-11-29T03:36:25.940Z,924.05
2016-11-29T03:36:54.175Z,924.02
2016-11-29T03:37:22.268Z,924.02
2016-11-29T03:37:50.432Z,924.02
2016-11-29T03:38:18.643Z,924
2016-11-29T03:38:46.801Z,924.03
2016-11-29T03:39:14.879Z,924.01
2016-11-29T03:39:43.047Z,923.97
2016-11-29T03:40:11.056Z,923.97
2016-11-29T03:40:39.237Z,923.97
2016-11-29T03:41:50.376Z,923.95
2016-11-29T03:42:18.452Z,923.95
2016-11-29T03:42:46.780Z,923.98
2016-11-29T03:43:15.052Z,923.95
2016-11-29T03:43:43.308Z,923.95
2016-11-29T03:44:11.430Z,923.98
2016-11-29T03:44:39.392Z,923.96
2016-11-29T03:45:07.403Z,923.98
2016-11-29T03:45:35.476Z,923.95
2016-11-29T03:46:03.581Z,923.94
2016-11-29T03:46:31.578Z,923.95
2016-11-29T03:47:42.801Z,923.98
2016-11-29T03:48:10.882Z,924.02
2016-11-29T03:48:39.016Z,924.03
2016-11-29T03:49:07.208Z,924.02
2016-11-29T03:49:35.459Z,924.02
2016-11-29T03:50:03.481Z,923.99
2016-11-29T03:50:31.446Z,924.02
2016-11-29T03:50:59.527Z,924.01
2016-11-29T03:51:27.784Z,924.03
2016-11-29T03:51:56.073Z,924.01
2016-11-29T03:52:24.256Z,923.97
2016-11-29T03:53:35.572Z,923.93
2016-11-29T03:54:03.653Z,923.97
2016-11-29T03:54:31.982Z,923.93
2016-11-29T03:55:00.069Z,923.92
2016-11-29T03:55:28.047Z,923.93
2016-11-29T03:55:56.254Z,923.93
2016-11-29T03:56:24.408Z,923.95
2016-11-29T03:56:52.301Z,923.91
2016-11-29T03:57:20.556Z,923.96
2016-11-29T03:57:48.561Z,923.94
2016-11-29T03:58:16.831Z,923.95
2016-11-29T03:59:27.958Z,923.96
2016-11-29T03:59:56.131Z,923.97
2016-11-29T04:00:24.266Z,923.97
2016-11-29T04:00:52.449Z,923.94
2016-11-29T04:01:20.700Z,923.94
2016-11-29T04:01:48.814Z,923.92
2016-11-29T04:02:16.689Z,923.93
2016-11-29T04:02:44.672Z,923.91
2016-11-29T04:03:25.703Z,923.93
2016-11-29T04:04:00.254Z,923.94
2016-11-29T04:04:28.363Z,923.87
2016-11-29T04:05:39.602Z,923.94
2016-11-29T04:06:07.661Z,923.97
2016-11-29T04:06:35.956Z,923.99
2016-11-29T04:07:04.241Z,924.05
2016-11-29T04:07:32.416Z,924.11
2016-11-29T04:08:00.467Z,924.19
2016-11-29T04:08:28.388Z,924.16
2016-11-29T04:08:56.677Z,924.16
2016-11-29T04:09:24.988Z,924.18
2016-11-29T04:09:53.137Z,924.12
2016-11-29T04:10:21.273Z,924.15
2016-11-29T04:11:32.634Z,924.13
2016-11-29T04:12:00.853Z,924.1
2016-11-29T04:12:29.217Z,924.01
2016-11-29T04:12:57.349Z,924.04
2016-11-29T04:13:25.474Z,924.08
2016-11-29T04:13:53.536Z,924.07
2016-11-29T04:14:21.727Z,924.06
2016-11-29T04:14:49.855Z,924.03
2016-11-29T04:15:17.972Z,924.03
2016-11-29T04:15:46.209Z,924.05
2016-11-29T04:16:14.526Z,924.03
2016-11-29T04:17:25.799Z,924.01
2016-11-29T04:17:53.926Z,924.05
2016-11-29T04:18:22.020Z,924.05
2016-11-29T04:18:50.249Z,924.05
2016-11-29T04:19:18.550Z,924.11
2016-11-29T04:19:46.804Z,924.07
2016-11-29T04:20:14.808Z,924.08
2016-11-29T04:20:42.937Z,924.03
2016-11-29T04:21:11.145Z,924.05
2016-11-29T04:21:39.477Z,924.04
2016-11-29T04:22:07.797Z,924.06
2016-11-29T04:23:19.164Z,924.09
2016-11-29T04:23:47.287Z,924.1
2016-11-29T04:24:15.568Z,924.1
2016-11-29T04:24:43.701Z,924.08
2016-11-29T04:25:11.723Z,924.2
2016-11-29T04:25:39.967Z,924.09
2016-11-29T04:26:08.253Z,924.15
2016-11-29T04:26:36.377Z,924.16
2016-11-29T04:27:04.583Z,924.2
2016-11-29T04:27:32.922Z,924.17
2016-11-29T04:28:01.144Z,924.15
2016-11-29T04:29:12.511Z,924.18
2016-11-29T04:29:40.637Z,924.18
2016-11-29T04:30:08.915Z,924.23
2016-11-29T04:30:37.046Z,924.14
2016-11-29T04:31:05.349Z,924.22
2016-11-29T04:31:33.597Z,924.19
2016-11-29T04:32:01.888Z,924.2
2016-11-29T04:32:30.018Z,924.26
2016-11-29T04:32:58.234Z,924.12
2016-11-29T04:33:26.569Z,924.17
2016-11-29T04:33:54.786Z,924.23
2016-11-29T04:35:06.153Z,924.2
2016-11-29T04:35:34.470Z,924.2
2016-11-29T04:36:02.838Z,924.23
2016-11-29T04:36:31.157Z,924.17
2016-11-29T04:36:59.367Z,924.18
2016-11-29T04:37:27.430Z,924.18
2016-11-29T04:37:55.718Z,924.18
2016-11-29T04:38:24.047Z,924.23
2016-11-29T04:38:52.163Z,924.17
2016-11-29T04:39:20.495Z,924.16
2016-11-29T04:39:48.722Z,924.1
2016-11-29T04:40:59.995Z,924.14
2016-11-29T04:41:28.122Z,924.15
2016-11-29T04:41:56.217Z,924.15
2016-11-29T04:42:24.535Z,924.14
2016-11-29T04:42:52.745Z,924.14
2016-11-29T04:43:21.000Z,924.12
2016-11-29T04:43:49.196Z,924.15
2016-11-29T04:44:17.327Z,924.21
2016-11-29T04:44:45.536Z,924.15
2016-11-29T04:45:13.771Z,924.13
2016-11-29T04:45:41.901Z,924.13
2016-11-29T04:46:53.198Z,924.17
2016-11-29T04:47:21.325Z,924.19
2016-11-29T04:47:49.507Z,924.14
2016-11-29T04:48:17.549Z,924.18
2016-11-29T04:48:45.662Z,924.18
2016-11-29T04:49:13.912Z,924.22
2016-11-29T04:49:42.106Z,924.19
2016-11-29T04:50:10.326Z,924.2
2016-11-29T04:50:38.535Z,924.12
2016-11-29T04:51:06.685Z,924.17
2016-11-29T04:51:34.997Z,924.15
2016-11-29T04:52:46.267Z,924.18
2016-11-29T04:53:14.391Z,924.13
2016-11-29T04:53:42.571Z,924.11
2016-11-29T04:54:10.704Z,924.11
2016-11-29T04:54:38.817Z,924.12
2016-11-29T04:55:06.789Z,924.11
2016-11-29T04:55:34.892Z,924.09
2016-11-29T04:56:03.208Z,924.12
2016-11-29T04:56:31.421Z,924.09
2016-11-29T04:56:59.574Z,924.08
2016-11-29T04:57:27.893Z,924.08
2016-11-29T04:58:39.161Z,924
2016-11-29T04:59:07.468Z,924.09
2016-11-29T04:59:35.463Z,924.11
2016-11-29T05:00:03.597Z,924.13
2016-11-29T05:00:31.899Z,924.1
2016-11-29T05:01:00.062Z,924.11
2016-11-29T05:01:28.353Z,924.13
2016-11-29T05:01:56.469Z,924.08
2016-11-29T05:02:24.495Z,924.08
2016-11-29T05:02:52.825Z,924.16
2016-11-29T05:03:20.863Z,924.01
2016-11-29T05:04:32.138Z,924.05
2016-11-29T05:05:00.266Z,923.99
2016-11-29T05:05:28.542Z,923.99
2016-11-29T05:05:56.860Z,924
2016-11-29T05:06:24.880Z,924
2016-11-29T05:06:53.138Z,923.99
2016-11-29T05:07:21.337Z,924.01
2016-11-29T05:07:49.463Z,923.98
2016-11-29T05:08:17.669Z,923.99
2016-11-29T05:08:45.902Z,923.99
2016-11-29T05:09:14.127Z,923.9
2016-11-29T05:10:25.495Z,924.06
2016-11-29T05:10:53.620Z,923.94
2016-11-29T05:11:21.897Z,923.98
2016-11-29T05:11:50.215Z,923.95
2016-11-29T05:12:18.423Z,923.93
2016-11-29T05:12:46.677Z,923.98
2016-11-29T05:13:14.967Z,924
2016-11-29T05:13:43.092Z,924
2016-11-29T05:14:11.395Z,924.01
2016-11-29T05:14:39.727Z,923.98
2016-11-29T05:15:07.860Z,923.95
2016-11-29T05:16:19.224Z,923.98
2016-11-29T05:16:47.533Z,923.95
2016-11-29T05:17:15.813Z,924.02
2016-11-29T05:17:44.136Z,923.97
2016-11-29T05:18:12.436Z,923.98
2016-11-29T05:18:40.594Z,923.94
2016-11-29T05:19:08.692Z,923.97
2016-11-29T05:19:36.815Z,923.94
2016-11-29T05:20:04.835Z,923.92
2016-11-29T05:20:33.167Z,923.93
2016-11-29T05:21:01.484Z,923.98
2016-11-29T05:22:12.664Z,923.94
2016-11-29T05:22:40.794Z,923.94
2016-11-29T05:23:09.163Z,923.93
2016-11-29T05:23:37.483Z,923.94
2016-11-29T05:24:05.599Z,923.94
2016-11-29T05:24:33.851Z,923.97
2016-11-29T05:25:02.145Z,923.96
2016-11-29T05:25:30.292Z,923.91
2016-11-29T05:25:58.313Z,923.92
2016-11-29T05:26:26.389Z,923.9
2016-11-29T05:26:54.706Z,923.95
2016-11-29T05:28:06.073Z,923.95
2016-11-29T05:28:34.292Z,923.94
2016-11-29T05:29:02.477Z,923.95
2016-11-29T05:29:30.708Z,923.92
2016-11-29T05:29:58.824Z,923.92
2016-11-29T05:30:26.986Z,923.94
2016-11-29T05:30:54.998Z,923.99
2016-11-29T05:31:23.219Z,924
2016-11-29T05:31:51.427Z,923.98
2016-11-29T05:32:19.758Z,923.98
2016-11-29T05:32:47.800Z,923.97
2016-11-29T05:33:59.162Z,924.03
2016-11-29T05:34:27.468Z,924.01
2016-11-29T05:34:55.748Z,924
2016-11-29T05:35:23.979Z,924.02
2016-11-29T05:35:52.089Z,924.03
2016-11-29T05:36:20.156Z,924.03
2016-11-29T05:36:48.450Z,924.06
2016-11-29T05:37:16.666Z,924.07
2016-11-29T05:37:44.866Z,924
2016-11-29T05:38:12.920Z,924
2016-11-29T05:38:41.047Z,923.98
2016-11-29T05:39:52.414Z,924
2016-11-29T05:40:20.723Z,924.02
2016-11-29T05:40:48.900Z,923.97
2016-11-29T05:41:17.052Z,923.97
2016-11-29T05:41:45.168Z,923.94
2016-11-29T05:42:13.325Z,923.93
2016-11-29T05:42:41.616Z,923.95
2016-11-29T05:43:09.923Z,923.96
2016-11-29T05:43:38.131Z,923.97
2016-11-29T05:44:06.271Z,923.94
2016-11-29T05:44:34.489Z,923.94
2016-11-29T05:45:45.757Z,923.94
2016-11-29T05:46:13.884Z,923.89
2016-11-29T05:46:41.999Z,923.9
2016-11-29T05:47:10.320Z,923.92
2016-11-29T05:47:38.527Z,923.88
2016-11-29T05:48:06.870Z,923.88
2016-11-29T05:48:35.161Z,923.86
2016-11-29T05:49:03.187Z,923.85
2016-11-29T05:49:31.027Z,923.86
2016-11-29T05:49:59.261Z,923.85
2016-11-29T05:50:27.482Z,923.84
2016-11-29T05:51:38.658Z,923.82
2016-11-29T05:52:06.688Z,923.8
2016-11-29T05:52:34.965Z,923.83
2016-11-29T05:53:03.099Z,923.81
2016-11-29T05:53:31.312Z,923.81
2016-11-29T05:53:59.659Z,923.83
2016-11-29T05:54:27.757Z,923.82
2016-11-29T05:54:55.791Z,923.82
2016-11-29T05:55:23.903Z,923.8
2016-11-29T05:55:52.137Z,923.84
2016-11-29T05:56:20.360Z,923.83
2016-11-29T05:57:31.634Z,923.81
2016-11-29T05:57:59.875Z,923.82
2016-11-29T05:58:28.059Z,923.84
2016-11-29T05:58:56.187Z,923.8
2016-11-29T05:59:24.218Z,923.86
2016-11-29T05:59:52.371Z,923.84
2016-11-29T06:00:20.470Z,923.84
2016-11-29T06:00:48.783Z,923.83
2016-11-29T06:01:16.892Z,923.81
2016-11-29T06:01:44.858Z,923.83
2016-11-29T06:02:12.985Z,923.81
2016-11-29T06:03:24.352Z,923.82
2016-11-29T06:03:52.587Z,923.81
2016-11-29T06:04:20.768Z,923.83
2016-11-29T06:04:49.089Z,923.81
2016-11-29T06:05:17.113Z,923.79
2016-11-29T06:05:45.273Z,923.79
2016-11-29T06:06:13.563Z,923.8
2016-11-29T06:06:41.789Z,923.83
2016-11-29T06:07:09.999Z,923.84
2016-11-29T06:07:38.243Z,923.83
2016-11-29T06:08:06.563Z,923.85
2016-11-29T06:09:17.832Z,923.86
2016-11-29T06:09:46.146Z,923.86
2016-11-29T06:10:14.329Z,923.9
2016-11-29T06:10:42.561Z,923.85
2016-11-29T06:11:10.757Z,923.85
2016-11-29T06:11:38.825Z,923.83
2016-11-29T06:12:07.116Z,923.87
2016-11-29T06:12:35.428Z,923.81
2016-11-29T06:13:03.542Z,923.82
2016-11-29T06:13:31.688Z,923.81
2016-11-29T06:13:59.912Z,923.85
2016-11-29T06:15:11.181Z,923.81
2016-11-29T06:15:39.302Z,923.77
2016-11-29T06:16:07.485Z,923.8
2016-11-29T06:16:35.435Z,923.8
2016-11-29T06:17:03.736Z,923.78
2016-11-29T06:17:31.896Z,923.78
2016-11-29T06:17:59.997Z,923.78
2016-11-29T06:18:28.213Z,923.78
2016-11-29T06:18:56.416Z,923.79
2016-11-29T06:19:24.557Z,923.77
2016-11-29T06:19:52.420Z,923.77
2016-11-29T06:21:03.690Z,923.76
2016-11-29T06:21:31.909Z,923.73
2016-11-29T06:22:00.097Z,923.76
2016-11-29T06:22:28.315Z,923.73
2016-11-29T06:22:56.430Z,923.76
2016-11-29T06:23:24.619Z,923.74
2016-11-29T06:23:52.815Z,923.74
2016-11-29T06:24:20.941Z,923.72
2016-11-29T06:24:49.057Z,923.68
2016-11-29T06:25:17.384Z,923.72
2016-11-29T06:25:45.604Z,923.67
2016-11-29T06:26:56.792Z,923.69
2016-11-29T06:27:25.011Z,923.65
2016-11-29T06:27:53.098Z,923.62
2016-11-29T06:28:21.419Z,923.61
2016-11-29T06:28:49.537Z,923.61
2016-11-29T06:29:17.787Z,923.62
2016-11-29T06:29:46.525Z,923.61
2016-11-29T06:30:14.746Z,923.63
2016-11-29T06:30:42.955Z,923.61
2016-11-29T06:31:11.292Z,923.58
2016-11-29T06:31:39.517Z,923.55
2016-11-29T06:32:50.503Z,923.58
2016-11-29T06:33:18.629Z,923.59
2016-11-29T06:33:47.001Z,923.55
2016-11-29T06:34:15.316Z,923.58
2016-11-29T06:34:43.523Z,923.55
2016-11-29T06:35:11.684Z,923.59
2016-11-29T06:35:39.977Z,923.6
2016-11-29T06:36:08.189Z,923.63
2016-11-29T06:36:36.301Z,923.61
2016-11-29T06:37:04.451Z,923.6
2016-11-29T06:37:32.580Z,923.6
2016-11-29T06:38:43.852Z,923.59
2016-11-29T06:39:12.158Z,923.58
2016-11-29T06:39:40.426Z,923.61
2016-11-29T06:40:08.556Z,923.59
2016-11-29T06:40:36.861Z,923.62
2016-11-29T06:41:04.934Z,923.58
2016-11-29T06:41:33.127Z,923.58
2016-11-29T06:42:01.340Z,923.58